Tuesday, April 24, 2018, 9:02 PM EDT
Back to Local

KNYC, New York City Central Park

Location: New York, NY, United States Lat: 40.783
Local Time: 9:02 PM EDT ( 1:02 GMT) Lon: -73.967
Time Zone: US/Eastern Elev: 157 ft

Show me the last for .
Show Decoded

2018-04-24 20:51 METAR KNYC 250051Z AUTO 15005KT 10SM FEW026 BKN032 OVC050 14/04 A3025 RMK AO2
                 SLP234 T01390044 =
2018-04-24 19:51 METAR KNYC 242351Z AUTO 14007G15KT 100V170 10SM OVC042 14/04 A3025 RMK AO2
                 SLP234 T01440039 10189 20144 56012 =
2018-04-24 18:51 METAR KNYC 242251Z AUTO 10SM OVC046 15/04 A3025 RMK AO2 SLP236 T01500044 =
2018-04-24 17:51 METAR KNYC 242151Z AUTO VRB04KT 10SM BKN050 BKN070 16/05 A3027 RMK AO2 SLP243
                 T01560050 =
2018-04-24 16:51 METAR KNYC 242051Z AUTO VRB06KT 10SM FEW055 17/04 A3029 RMK AO2 SLP246 T01670044
                 56022 =
2018-04-24 15:51 METAR KNYC 241951Z AUTO 10SM FEW048 17/04 A3030 RMK AO2 SLP251 T01720044 =
2018-04-24 14:51 METAR KNYC 241851Z AUTO VRB04KT 10SM SCT048 17/04 A3033 RMK AO2 SLP261 T01720039
                 =
2018-04-24 13:51 METAR KNYC 241751Z AUTO 17009G18KT 10SM CLR 18/02 A3035 RMK AO2 SLP269 T01830017
                 10189 20117 58020 =
2018-04-24 12:51 METAR KNYC 241651Z AUTO VRB05KT 10SM FEW049 18/02 A3037 RMK AO2 SLP276 T01780017
                 =
2018-04-24 11:51 METAR KNYC 241551Z AUTO VRB04KT 10SM SCT049 18/03 A3040 RMK AO2 SLP284 T01780028
                 =
2018-04-24 10:51 METAR KNYC 241451Z AUTO 08004KT 10SM CLR 17/02 A3041 RMK AO2 SLP289 T01670017
                 58006 =
2018-04-24 09:51 METAR KNYC 241351Z AUTO VRB04KT 10SM CLR 15/02 A3043 RMK AO2 SLP294 T01500022 =
2018-04-24 08:51 METAR KNYC 241251Z AUTO VRB03KT 10SM CLR 13/04 A3043 RMK AO2 SLP296 T01330039 =
2018-04-24 07:51 METAR KNYC 241151Z AUTO 16006KT 10SM CLR 12/04 A3043 RMK AO2 SLP297 T01170039
                 10117 20078 53004 =
2018-04-24 06:51 METAR KNYC 241051Z AUTO VRB03KT 9SM CLR 09/06 A3042 RMK AO2 SLP293 T00890061 =
2018-04-24 05:51 METAR KNYC 240951Z AUTO 00000KT 8SM CLR 08/06 A3043 RMK AO2 SLP295 T00830056 =
2018-04-24 04:51 METAR KNYC 240851Z AUTO 00000KT 10SM CLR 09/06 A3042 RMK AO2 SLP292 T00890056
                 56005 =
2018-04-24 03:51 METAR KNYC 240751Z AUTO 00000KT 10SM CLR 09/05 A3042 RMK AO2 SLP294 T00890050 =
2018-04-24 02:51 METAR KNYC 240651Z AUTO 04003KT 10SM CLR 09/05 A3042 RMK AO2 SLP293 T00890050 =
2018-04-24 01:51 METAR KNYC 240551Z AUTO VRB03KT 10SM CLR 11/00 A3043 RMK AO2 SLP297 T01110000
                 10122 20100 57009 =
2018-04-24 00:51 METAR KNYC 240451Z AUTO 05003KT 10SM CLR 10/04 A3044 RMK AO2 SLP300 T01000039
                 402000078 =
2018-04-23 23:51 METAR KNYC 240351Z AUTO 00000KT 10SM CLR 11/01 A3045 RMK AO2 SLP302 T01060011 =
2018-04-23 22:51 METAR KNYC 240251Z AUTO 20004KT 10SM CLR 11/03 A3046 RMK AO2 SLP305 T01060028
                 50002 =
2018-04-23 21:51 METAR KNYC 240151Z AUTO VRB04KT 10SM CLR 11/04 A3047 RMK AO2 SLP309 T01060039 =

Support USWX by starting your Amazon purchase here.